sensor_id;sensor_type;location;lat;lon;timestamp;P1;durP1;ratioP1;P2;durP2;ratioP2
1026;SDS011;502;48.746;9.214;2023-01-01T00:01:39;32.83;;;28.20;;
1026;SDS011;502;48.746;9.214;2023-01-01T00:04:24;31.87;;;27.00;;
1026;SDS011;502;48.746;9.214;2023-01-01T00:07:12;31.03;;;25.83;;
1026;SDS011;502;48.746;9.214;2023-01-01T00:09:57;30.60;;;25.03;;
1026;SDS011;502;48.746;9.214;2023-01-01T00:13:00;25.10;;;20.80;;
1026;SDS011;502;48.746;9.214;2023-01-01T00:15:45;18.63;;;16.20;;
1026;SDS011;502;48.746;9.214;2023-01-01T00:18:30;18.37;;;14.17;;
1026;SDS011;502;48.746;9.214;2023-01-01T00:21:16;15.93;;;11.77;;
1026;SDS011;502;48.746;9.214;2023-01-01T00:24:03;13.40;;;10.90;;
1026;SDS011;502;48.746;9.214;2023-01-01T00:26:49;10.33;;;9.23;;
1026;SDS011;502;48.746;9.214;2023-01-01T00:29:35;13.53;;;9.40;;
1026;SDS011;502;48.746;9.214;2023-01-01T00:32:20;10.90;;;7.70;;
1026;SDS011;502;48.746;9.214;2023-01-01T00:35:05;9.70;;;8.30;;
1026;SDS011;502;48.746;9.214;2023-01-01T00:37:52;10.00;;;7.90;;
1026;SDS011;502;48.746;9.214;2023-01-01T00:40:39;13.50;;;9.87;;
1026;SDS011;502;48.746;9.214;2023-01-01T00:43:24;14.67;;;12.20;;
1026;SDS011;502;48.746;9.214;2023-01-01T00:46:10;13.00;;;11.20;;
1026;SDS011;502;48.746;9.214;2023-01-01T00:48:55;13.30;;;10.27;;
1026;SDS011;502;48.746;9.214;2023-01-01T00:51:41;13.70;;;11.20;;
1026;SDS011;502;48.746;9.214;2023-01-01T00:54:26;11.50;;;10.30;;
1026;SDS011;502;48.746;9.214;2023-01-01T00:57:13;12.20;;;10.70;;
1026;SDS011;502;48.746;9.214;2023-01-01T00:59:58;15.03;;;12.60;;
1026;SDS011;502;48.746;9.214;2023-01-01T01:02:43;14.53;;;12.60;;
1026;SDS011;502;48.746;9.214;2023-01-01T01:05:29;14.57;;;13.07;;
1026;SDS011;502;48.746;9.214;2023-01-01T01:08:15;13.40;;;10.70;;
1026;SDS011;502;48.746;9.214;2023-01-01T01:11:03;15.00;;;12.43;;
1026;SDS011;502;48.746;9.214;2023-01-01T01:13:50;14.00;;;11.27;;
1026;SDS011;502;48.746;9.214;2023-01-01T01:16:37;13.67;;;11.30;;
1026;SDS011;502;48.746;9.214;2023-01-01T01:19:22;12.93;;;11.00;;
1026;SDS011;502;48.746;9.214;2023-01-01T01:22:08;13.53;;;10.77;;
1026;SDS011;502;48.746;9.214;2023-01-01T01:24:54;14.87;;;12.20;;
1026;SDS011;502;48.746;9.214;2023-01-01T01:27:39;13.67;;;11.30;;
1026;SDS011;502;48.746;9.214;2023-01-01T01:30:26;16.53;;;12.00;;
1026;SDS011;502;48.746;9.214;2023-01-01T01:33:13;12.50;;;11.20;;
1026;SDS011;502;48.746;9.214;2023-01-01T01:35:58;13.37;;;11.87;;
1026;SDS011;502;48.746;9.214;2023-01-01T01:38:44;13.27;;;11.87;;
1026;SDS011;502;48.746;9.214;2023-01-01T01:41:29;13.43;;;10.97;;
1026;SDS011;502;48.746;9.214;2023-01-01T01:47:34;14.63;;;11.77;;
1026;SDS011;502;48.746;9.214;2023-01-01T01:50:22;15.60;;;12.40;;
1026;SDS011;502;48.746;9.214;2023-01-01T01:53:12;12.67;;;10.93;;
1026;SDS011;502;48.746;9.214;2023-01-01T01:56:00;11.37;;;9.90;;
1026;SDS011;502;48.746;9.214;2023-01-01T01:58:48;13.10;;;10.40;;
1026;SDS011;502;48.746;9.214;2023-01-01T02:01:35;10.07;;;8.50;;
1026;SDS011;502;48.746;9.214;2023-01-01T02:04:22;10.43;;;8.53;;
1026;SDS011;502;48.746;9.214;2023-01-01T02:07:07;10.03;;;8.10;;
1026;SDS011;502;48.746;9.214;2023-01-01T02:09:52;9.37;;;7.93;;
1026;SDS011;502;48.746;9.214;2023-01-01T02:12:38;11.70;;;9.10;;
1026;SDS011;502;48.746;9.214;2023-01-01T02:15:24;10.70;;;7.57;;
1026;SDS011;502;48.746;9.214;2023-01-01T02:18:14;10.07;;;7.80;;
1026;SDS011;502;48.746;9.214;2023-01-01T02:21:05;8.20;;;6.60;;
1026;SDS011;502;48.746;9.214;2023-01-01T02:23:59;9.80;;;7.80;;
1026;SDS011;502;48.746;9.214;2023-01-01T02:26:50;10.53;;;7.70;;
1026;SDS011;502;48.746;9.214;2023-01-01T02:29:41;9.23;;;7.60;;
1026;SDS011;502;48.746;9.214;2023-01-01T02:32:28;10.13;;;8.20;;
1026;SDS011;502;48.746;9.214;2023-01-01T02:35:16;11.63;;;8.73;;
1026;SDS011;502;48.746;9.214;2023-01-01T02:38:23;10.10;;;8.90;;
1026;SDS011;502;48.746;9.214;2023-01-01T02:41:11;11.13;;;8.80;;
1026;SDS011;502;48.746;9.214;2023-01-01T02:43:58;12.07;;;9.83;;
1026;SDS011;502;48.746;9.214;2023-01-01T02:46:45;10.03;;;8.30;;
1026;SDS011;502;48.746;9.214;2023-01-01T02:49:30;10.87;;;8.83;;
1026;SDS011;502;48.746;9.214;2023-01-01T02:52:19;10.07;;;8.30;;
1026;SDS011;502;48.746;9.214;2023-01-01T02:55:12;12.70;;;9.70;;
1026;SDS011;502;48.746;9.214;2023-01-01T02:58:03;10.33;;;7.67;;
1026;SDS011;502;48.746;9.214;2023-01-01T03:01:07;7.63;;;6.30;;
1026;SDS011;502;48.746;9.214;2023-01-01T03:04:02;10.07;;;7.87;;
1026;SDS011;502;48.746;9.214;2023-01-01T03:06:54;8.90;;;5.90;;
1026;SDS011;502;48.746;9.214;2023-01-01T03:09:46;8.80;;;7.20;;
1026;SDS011;502;48.746;9.214;2023-01-01T03:12:36;6.97;;;6.27;;
1026;SDS011;502;48.746;9.214;2023-01-01T03:15:26;8.20;;;5.90;;
1026;SDS011;502;48.746;9.214;2023-01-01T03:18:16;8.93;;;5.90;;
1026;SDS011;502;48.746;9.214;2023-01-01T03:21:04;7.07;;;5.70;;
1026;SDS011;502;48.746;9.214;2023-01-01T03:23:50;8.27;;;6.00;;
1026;SDS011;502;48.746;9.214;2023-01-01T03:26:39;8.30;;;6.93;;
1026;SDS011;502;48.746;9.214;2023-01-01T03:29:24;7.67;;;6.50;;
1026;SDS011;502;48.746;9.214;2023-01-01T03:32:14;8.20;;;6.23;;
1026;SDS011;502;48.746;9.214;2023-01-01T03:35:02;7.10;;;5.83;;
1026;SDS011;502;48.746;9.214;2023-01-01T03:37:50;8.57;;;6.40;;
1026;SDS011;502;48.746;9.214;2023-01-01T03:40:37;7.23;;;5.77;;
1026;SDS011;502;48.746;9.214;2023-01-01T03:43:25;5.80;;;4.90;;
1026;SDS011;502;48.746;9.214;2023-01-01T03:46:15;6.63;;;5.97;;
1026;SDS011;502;48.746;9.214;2023-01-01T03:49:04;6.83;;;5.40;;
1026;SDS011;502;48.746;9.214;2023-01-01T03:52:10;8.77;;;5.90;;
1026;SDS011;502;48.746;9.214;2023-01-01T03:55:03;7.07;;;5.00;;
1026;SDS011;502;48.746;9.214;2023-01-01T03:57:53;5.90;;;4.83;;
1026;SDS011;502;48.746;9.214;2023-01-01T04:00:42;7.70;;;5.37;;
1026;SDS011;502;48.746;9.214;2023-01-01T04:03:30;9.07;;;6.20;;
1026;SDS011;502;48.746;9.214;2023-01-01T04:06:17;6.83;;;5.63;;
1026;SDS011;502;48.746;9.214;2023-01-01T04:09:03;8.10;;;6.00;;
1026;SDS011;502;48.746;9.214;2023-01-01T04:11:50;7.30;;;5.30;;
1026;SDS011;502;48.746;9.214;2023-01-01T04:14:47;6.97;;;5.50;;
1026;SDS011;502;48.746;9.214;2023-01-01T04:17:33;7.10;;;4.90;;
1026;SDS011;502;48.746;9.214;2023-01-01T04:20:19;6.60;;;5.03;;
1026;SDS011;502;48.746;9.214;2023-01-01T04:23:04;6.20;;;4.90;;
1026;SDS011;502;48.746;9.214;2023-01-01T04:25:50;6.00;;;5.40;;
1026;SDS011;502;48.746;9.214;2023-01-01T04:28:36;7.50;;;5.50;;
1026;SDS011;502;48.746;9.214;2023-01-01T04:31:22;7.00;;;5.07;;
1026;SDS011;502;48.746;9.214;2023-01-01T04:34:08;5.80;;;5.03;;
1026;SDS011;502;48.746;9.214;2023-01-01T04:36:53;6.50;;;5.10;;
1026;SDS011;502;48.746;9.214;2023-01-01T04:39:38;6.03;;;4.90;;
1026;SDS011;502;48.746;9.214;2023-01-01T04:42:24;5.70;;;4.80;;
1026;SDS011;502;48.746;9.214;2023-01-01T04:45:11;7.20;;;5.03;;
1026;SDS011;502;48.746;9.214;2023-01-01T04:48:02;5.90;;;4.83;;
1026;SDS011;502;48.746;9.214;2023-01-01T04:50:52;5.77;;;4.13;;
1026;SDS011;502;48.746;9.214;2023-01-01T04:53:39;6.40;;;5.80;;
1026;SDS011;502;48.746;9.214;2023-01-01T04:56:24;5.63;;;4.30;;
1026;SDS011;502;48.746;9.214;2023-01-01T04:59:10;5.60;;;5.00;;
1026;SDS011;502;48.746;9.214;2023-01-01T05:01:57;5.37;;;4.20;;
1026;SDS011;502;48.746;9.214;2023-01-01T05:04:42;5.70;;;5.10;;
1026;SDS011;502;48.746;9.214;2023-01-01T05:07:27;5.90;;;4.50;;
1026;SDS011;502;48.746;9.214;2023-01-01T05:10:12;6.03;;;4.20;;
1026;SDS011;502;48.746;9.214;2023-01-01T05:12:58;6.20;;;4.90;;
1026;SDS011;502;48.746;9.214;2023-01-01T05:15:44;7.00;;;4.20;;
1026;SDS011;502;48.746;9.214;2023-01-01T05:18:30;5.83;;;3.80;;
1026;SDS011;502;48.746;9.214;2023-01-01T05:21:17;5.40;;;4.10;;
1026;SDS011;502;48.746;9.214;2023-01-01T05:24:05;4.83;;;4.13;;
1026;SDS011;502;48.746;9.214;2023-01-01T05:26:51;6.90;;;4.20;;
1026;SDS011;502;48.746;9.214;2023-01-01T05:29:37;5.40;;;3.70;;
1026;SDS011;502;48.746;9.214;2023-01-01T05:32:23;4.97;;;4.07;;
1026;SDS011;502;48.746;9.214;2023-01-01T05:35:09;5.27;;;4.07;;
1026;SDS011;502;48.746;9.214;2023-01-01T05:37:55;4.90;;;3.87;;
1026;SDS011;502;48.746;9.214;2023-01-01T05:40:40;4.23;;;3.63;;
1026;SDS011;502;48.746;9.214;2023-01-01T05:43:26;5.87;;;4.37;;
1026;SDS011;502;48.746;9.214;2023-01-01T05:46:11;6.03;;;4.30;;
1026;SDS011;502;48.746;9.214;2023-01-01T05:48:58;6.87;;;4.30;;
1026;SDS011;502;48.746;9.214;2023-01-01T05:51:45;5.50;;;4.77;;
1026;SDS011;502;48.746;9.214;2023-01-01T05:54:30;5.07;;;4.20;;
1026;SDS011;502;48.746;9.214;2023-01-01T05:57:16;5.00;;;4.30;;
1026;SDS011;502;48.746;9.214;2023-01-01T06:00:01;6.17;;;4.63;;
1026;SDS011;502;48.746;9.214;2023-01-01T06:02:50;4.43;;;3.60;;
1026;SDS011;502;48.746;9.214;2023-01-01T06:05:37;5.57;;;4.07;;
1026;SDS011;502;48.746;9.214;2023-01-01T06:08:24;5.40;;;3.90;;
1026;SDS011;502;48.746;9.214;2023-01-01T06:11:10;6.00;;;4.00;;
1026;SDS011;502;48.746;9.214;2023-01-01T06:13:57;4.87;;;4.30;;
1026;SDS011;502;48.746;9.214;2023-01-01T06:16:43;5.50;;;4.00;;
1026;SDS011;502;48.746;9.214;2023-01-01T06:19:28;4.83;;;3.73;;
1026;SDS011;502;48.746;9.214;2023-01-01T06:22:13;5.43;;;3.53;;
1026;SDS011;502;48.746;9.214;2023-01-01T06:25:00;5.47;;;4.03;;
1026;SDS011;502;48.746;9.214;2023-01-01T06:27:45;6.97;;;4.03;;
1026;SDS011;502;48.746;9.214;2023-01-01T06:30:31;5.07;;;3.97;;
1026;SDS011;502;48.746;9.214;2023-01-01T06:33:17;4.67;;;4.17;;
1026;SDS011;502;48.746;9.214;2023-01-01T06:36:02;4.70;;;3.47;;
1026;SDS011;502;48.746;9.214;2023-01-01T06:38:51;5.07;;;3.60;;
1026;SDS011;502;48.746;9.214;2023-01-01T06:41:39;4.73;;;4.20;;
1026;SDS011;502;48.746;9.214;2023-01-01T06:44:24;5.07;;;4.10;;
1026;SDS011;502;48.746;9.214;2023-01-01T06:47:09;4.00;;;2.97;;
1026;SDS011;502;48.746;9.214;2023-01-01T06:49:55;6.27;;;3.60;;
1026;SDS011;502;48.746;9.214;2023-01-01T06:52:40;4.57;;;3.60;;
1026;SDS011;502;48.746;9.214;2023-01-01T06:55:26;4.20;;;3.07;;
1026;SDS011;502;48.746;9.214;2023-01-01T06:58:12;3.50;;;2.70;;
1026;SDS011;502;48.746;9.214;2023-01-01T07:01:04;4.20;;;2.80;;
1026;SDS011;502;48.746;9.214;2023-01-01T07:03:50;4.53;;;3.77;;
1026;SDS011;502;48.746;9.214;2023-01-01T07:06:37;5.93;;;3.30;;
1026;SDS011;502;48.746;9.214;2023-01-01T07:09:22;5.13;;;3.07;;
1026;SDS011;502;48.746;9.214;2023-01-01T07:12:08;4.70;;;3.27;;
1026;SDS011;502;48.746;9.214;2023-01-01T07:14:55;4.77;;;3.27;;
1026;SDS011;502;48.746;9.214;2023-01-01T07:17:40;5.90;;;3.70;;
1026;SDS011;502;48.746;9.214;2023-01-01T07:20:25;4.40;;;3.00;;
1026;SDS011;502;48.746;9.214;2023-01-01T07:23:11;3.50;;;2.90;;
1026;SDS011;502;48.746;9.214;2023-01-01T07:25:56;4.60;;;3.50;;
1026;SDS011;502;48.746;9.214;2023-01-01T07:28:42;3.53;;;3.00;;
1026;SDS011;502;48.746;9.214;2023-01-01T07:31:28;3.10;;;2.57;;
1026;SDS011;502;48.746;9.214;2023-01-01T07:34:15;3.90;;;2.90;;
1026;SDS011;502;48.746;9.214;2023-01-01T07:37:02;3.80;;;3.03;;
1026;SDS011;502;48.746;9.214;2023-01-01T07:39:47;4.43;;;2.80;;
1026;SDS011;502;48.746;9.214;2023-01-01T07:42:32;4.40;;;2.47;;
1026;SDS011;502;48.746;9.214;2023-01-01T07:45:18;5.23;;;3.07;;
1026;SDS011;502;48.746;9.214;2023-01-01T07:48:06;4.40;;;3.00;;
1026;SDS011;502;48.746;9.214;2023-01-01T07:50:53;3.77;;;2.70;;
1026;SDS011;502;48.746;9.214;2023-01-01T07:53:38;3.67;;;2.63;;
1026;SDS011;502;48.746;9.214;2023-01-01T07:56:24;3.40;;;2.60;;
1026;SDS011;502;48.746;9.214;2023-01-01T07:59:09;4.47;;;2.90;;
1026;SDS011;502;48.746;9.214;2023-01-01T08:01:54;2.80;;;2.27;;
1026;SDS011;502;48.746;9.214;2023-01-01T08:04:41;3.53;;;3.13;;
1026;SDS011;502;48.746;9.214;2023-01-01T08:07:26;3.83;;;2.63;;
1026;SDS011;502;48.746;9.214;2023-01-01T08:10:13;4.10;;;3.50;;
1026;SDS011;502;48.746;9.214;2023-01-01T08:13:01;5.43;;;3.00;;
1026;SDS011;502;48.746;9.214;2023-01-01T08:15:46;4.03;;;3.17;;
1026;SDS011;502;48.746;9.214;2023-01-01T08:18:34;4.53;;;3.37;;
1026;SDS011;502;48.746;9.214;2023-01-01T08:21:21;3.93;;;3.30;;
1026;SDS011;502;48.746;9.214;2023-01-01T08:24:06;4.60;;;3.00;;
1026;SDS011;502;48.746;9.214;2023-01-01T08:26:51;3.40;;;2.70;;
1026;SDS011;502;48.746;9.214;2023-01-01T08:29:37;4.60;;;3.50;;
1026;SDS011;502;48.746;9.214;2023-01-01T08:32:22;3.60;;;2.97;;
1026;SDS011;502;48.746;9.214;2023-01-01T08:35:08;3.60;;;2.90;;
1026;SDS011;502;48.746;9.214;2023-01-01T08:37:55;5.17;;;3.23;;
1026;SDS011;502;48.746;9.214;2023-01-01T08:40:40;5.60;;;3.63;;
1026;SDS011;502;48.746;9.214;2023-01-01T08:43:25;4.90;;;3.43;;
1026;SDS011;502;48.746;9.214;2023-01-01T08:46:11;4.00;;;3.50;;
1026;SDS011;502;48.746;9.214;2023-01-01T08:48:57;6.03;;;3.37;;
1026;SDS011;502;48.746;9.214;2023-01-01T08:51:42;4.20;;;3.50;;
1026;SDS011;502;48.746;9.214;2023-01-01T08:54:29;4.13;;;3.47;;
1026;SDS011;502;48.746;9.214;2023-01-01T08:57:15;5.20;;;3.47;;
1026;SDS011;502;48.746;9.214;2023-01-01T09:00:02;8.87;;;3.50;;
1026;SDS011;502;48.746;9.214;2023-01-01T09:02:48;4.97;;;3.13;;
1026;SDS011;502;48.746;9.214;2023-01-01T09:05:33;4.83;;;3.57;;
1026;SDS011;502;48.746;9.214;2023-01-01T09:08:19;5.83;;;3.00;;
1026;SDS011;502;48.746;9.214;2023-01-01T09:11:06;6.20;;;3.50;;
1026;SDS011;502;48.746;9.214;2023-01-01T09:13:52;4.37;;;3.20;;
1026;SDS011;502;48.746;9.214;2023-01-01T09:16:38;3.63;;;3.17;;
1026;SDS011;502;48.746;9.214;2023-01-01T09:19:23;4.60;;;3.30;;
1026;SDS011;502;48.746;9.214;2023-01-01T09:22:09;4.77;;;3.10;;
1026;SDS011;502;48.746;9.214;2023-01-01T09:24:54;4.30;;;3.20;;
1026;SDS011;502;48.746;9.214;2023-01-01T09:27:41;4.70;;;3.20;;
1026;SDS011;502;48.746;9.214;2023-01-01T09:30:26;6.60;;;4.27;;
1026;SDS011;502;48.746;9.214;2023-01-01T09:33:12;4.57;;;2.87;;
1026;SDS011;502;48.746;9.214;2023-01-01T09:36:10;4.97;;;3.13;;
1026;SDS011;502;48.746;9.214;2023-01-01T09:38:56;5.23;;;2.73;;
1026;SDS011;502;48.746;9.214;2023-01-01T09:41:48;3.93;;;3.13;;
1026;SDS011;502;48.746;9.214;2023-01-01T09:44:59;3.80;;;3.23;;
1026;SDS011;502;48.746;9.214;2023-01-01T09:47:48;5.93;;;3.83;;
1026;SDS011;502;48.746;9.214;2023-01-01T09:50:37;4.90;;;3.70;;
1026;SDS011;502;48.746;9.214;2023-01-01T09:53:25;3.93;;;3.50;;
1026;SDS011;502;48.746;9.214;2023-01-01T09:56:16;6.10;;;3.00;;
1026;SDS011;502;48.746;9.214;2023-01-01T09:59:03;6.80;;;3.97;;
1026;SDS011;502;48.746;9.214;2023-01-01T10:01:51;3.57;;;3.13;;
1026;SDS011;502;48.746;9.214;2023-01-01T10:04:44;4.90;;;3.50;;
1026;SDS011;502;48.746;9.214;2023-01-01T10:07:40;5.33;;;3.10;;
1026;SDS011;502;48.746;9.214;2023-01-01T10:10:32;4.87;;;4.10;;
1026;SDS011;502;48.746;9.214;2023-01-01T10:13:21;4.10;;;2.90;;
1026;SDS011;502;48.746;9.214;2023-01-01T10:16:10;4.77;;;2.77;;
1026;SDS011;502;48.746;9.214;2023-01-01T10:19:04;4.80;;;3.57;;
1026;SDS011;502;48.746;9.214;2023-01-01T10:21:53;4.33;;;3.27;;
1026;SDS011;502;48.746;9.214;2023-01-01T10:24:42;4.20;;;3.00;;
1026;SDS011;502;48.746;9.214;2023-01-01T10:27:30;4.50;;;3.53;;
1026;SDS011;502;48.746;9.214;2023-01-01T10:30:18;3.97;;;2.80;;
1026;SDS011;502;48.746;9.214;2023-01-01T10:33:04;3.70;;;3.20;;
1026;SDS011;502;48.746;9.214;2023-01-01T10:35:55;5.70;;;3.30;;
1026;SDS011;502;48.746;9.214;2023-01-01T10:38:40;4.43;;;2.87;;
1026;SDS011;502;48.746;9.214;2023-01-01T10:41:26;3.63;;;2.97;;
1026;SDS011;502;48.746;9.214;2023-01-01T10:44:11;7.70;;;3.70;;
1026;SDS011;502;48.746;9.214;2023-01-01T10:46:58;4.80;;;3.20;;
1026;SDS011;502;48.746;9.214;2023-01-01T10:49:52;6.30;;;2.70;;
1026;SDS011;502;48.746;9.214;2023-01-01T10:52:43;4.40;;;3.10;;
1026;SDS011;502;48.746;9.214;2023-01-01T10:55:39;5.10;;;2.70;;
1026;SDS011;502;48.746;9.214;2023-01-01T10:58:26;5.03;;;3.47;;
1026;SDS011;502;48.746;9.214;2023-01-01T11:01:18;5.03;;;2.87;;
1026;SDS011;502;48.746;9.214;2023-01-01T11:04:16;5.80;;;4.10;;
1026;SDS011;502;48.746;9.214;2023-01-01T11:07:04;4.20;;;3.20;;
1026;SDS011;502;48.746;9.214;2023-01-01T11:09:51;4.53;;;3.10;;
1026;SDS011;502;48.746;9.214;2023-01-01T11:12:39;3.30;;;2.80;;
1026;SDS011;502;48.746;9.214;2023-01-01T11:15:25;4.57;;;3.00;;
1026;SDS011;502;48.746;9.214;2023-01-01T11:18:19;4.47;;;3.33;;
1026;SDS011;502;48.746;9.214;2023-01-01T11:21:06;3.90;;;3.33;;
1026;SDS011;502;48.746;9.214;2023-01-01T11:24:08;5.57;;;3.50;;
1026;SDS011;502;48.746;9.214;2023-01-01T11:27:12;4.70;;;3.90;;
1026;SDS011;502;48.746;9.214;2023-01-01T11:30:19;3.90;;;3.00;;
1026;SDS011;502;48.746;9.214;2023-01-01T11:33:12;3.50;;;2.87;;
1026;SDS011;502;48.746;9.214;2023-01-01T11:35:59;6.00;;;4.23;;
1026;SDS011;502;48.746;9.214;2023-01-01T11:38:45;3.73;;;3.07;;
1026;SDS011;502;48.746;9.214;2023-01-01T11:41:39;4.93;;;2.93;;
1026;SDS011;502;48.746;9.214;2023-01-01T11:44:29;3.40;;;2.80;;
1026;SDS011;502;48.746;9.214;2023-01-01T11:47:23;5.57;;;3.03;;
1026;SDS011;502;48.746;9.214;2023-01-01T11:50:17;4.67;;;2.70;;
1026;SDS011;502;48.746;9.214;2023-01-01T11:53:16;4.40;;;2.93;;
1026;SDS011;502;48.746;9.214;2023-01-01T11:56:05;4.03;;;2.93;;
1026;SDS011;502;48.746;9.214;2023-01-01T11:58:55;3.13;;;2.80;;
1026;SDS011;502;48.746;9.214;2023-01-01T12:01:43;5.63;;;3.07;;
1026;SDS011;502;48.746;9.214;2023-01-01T12:04:34;4.67;;;3.00;;
1026;SDS011;502;48.746;9.214;2023-01-01T12:07:23;4.80;;;2.73;;
1026;SDS011;502;48.746;9.214;2023-01-01T12:10:15;3.70;;;2.30;;
1026;SDS011;502;48.746;9.214;2023-01-01T12:13:05;5.53;;;2.70;;
1026;SDS011;502;48.746;9.214;2023-01-01T12:15:53;4.73;;;2.37;;
1026;SDS011;502;48.746;9.214;2023-01-01T12:18:46;3.60;;;2.43;;
1026;SDS011;502;48.746;9.214;2023-01-01T12:21:32;3.20;;;2.67;;
1026;SDS011;502;48.746;9.214;2023-01-01T12:24:19;4.20;;;2.27;;
1026;SDS011;502;48.746;9.214;2023-01-01T12:27:15;4.43;;;2.60;;
1026;SDS011;502;48.746;9.214;2023-01-01T12:30:04;3.83;;;2.40;;
1026;SDS011;502;48.746;9.214;2023-01-01T12:32:59;10.60;;;2.97;;
1026;SDS011;502;48.746;9.214;2023-01-01T12:36:05;3.83;;;2.40;;
1026;SDS011;502;48.746;9.214;2023-01-01T12:42:22;3.97;;;2.47;;
1026;SDS011;502;48.746;9.214;2023-01-01T12:45:16;5.43;;;3.00;;
1026;SDS011;502;48.746;9.214;2023-01-01T12:48:16;3.57;;;2.73;;
1026;SDS011;502;48.746;9.214;2023-01-01T12:51:16;3.00;;;1.93;;
1026;SDS011;502;48.746;9.214;2023-01-01T12:54:13;3.20;;;2.07;;
1026;SDS011;502;48.746;9.214;2023-01-01T12:57:08;4.40;;;2.20;;
1026;SDS011;502;48.746;9.214;2023-01-01T12:59:58;3.33;;;2.80;;
1026;SDS011;502;48.746;9.214;2023-01-01T13:02:47;5.03;;;2.60;;
1026;SDS011;502;48.746;9.214;2023-01-01T13:05:35;3.80;;;2.30;;
1026;SDS011;502;48.746;9.214;2023-01-01T13:08:23;3.33;;;2.33;;
1026;SDS011;502;48.746;9.214;2023-01-01T13:11:09;3.20;;;2.30;;
1026;SDS011;502;48.746;9.214;2023-01-01T13:13:56;5.77;;;2.40;;
1026;SDS011;502;48.746;9.214;2023-01-01T13:16:43;5.03;;;2.30;;
1026;SDS011;502;48.746;9.214;2023-01-01T13:19:29;3.60;;;2.17;;
1026;SDS011;502;48.746;9.214;2023-01-01T13:22:35;2.83;;;2.53;;
1026;SDS011;502;48.746;9.214;2023-01-01T13:25:26;5.10;;;2.63;;
1026;SDS011;502;48.746;9.214;2023-01-01T13:28:11;3.80;;;1.90;;
1026;SDS011;502;48.746;9.214;2023-01-01T13:30:56;3.00;;;2.00;;
1026;SDS011;502;48.746;9.214;2023-01-01T13:33:42;4.33;;;2.23;;
1026;SDS011;502;48.746;9.214;2023-01-01T13:36:30;6.20;;;2.73;;
1026;SDS011;502;48.746;9.214;2023-01-01T13:42:40;7.53;;;2.83;;
1026;SDS011;502;48.746;9.214;2023-01-01T13:45:28;5.23;;;2.67;;
1026;SDS011;502;48.746;9.214;2023-01-01T13:48:19;19.63;;;4.37;;
1026;SDS011;502;48.746;9.214;2023-01-01T13:58:26;3.90;;;2.33;;
1026;SDS011;502;48.746;9.214;2023-01-01T14:04:34;6.47;;;3.23;;
1026;SDS011;502;48.746;9.214;2023-01-01T14:07:30;6.40;;;2.70;;
1026;SDS011;502;48.746;9.214;2023-01-01T14:10:23;8.17;;;2.77;;
1026;SDS011;502;48.746;9.214;2023-01-01T14:13:14;8.60;;;2.83;;
1026;SDS011;502;48.746;9.214;2023-01-01T14:16:02;3.47;;;2.20;;
1026;SDS011;502;48.746;9.214;2023-01-01T14:18:51;7.63;;;2.90;;
1026;SDS011;502;48.746;9.214;2023-01-01T14:21:38;7.53;;;2.27;;
1026;SDS011;502;48.746;9.214;2023-01-01T14:24:24;3.97;;;2.10;;
1026;SDS011;502;48.746;9.214;2023-01-01T14:27:12;4.13;;;2.73;;
1026;SDS011;502;48.746;9.214;2023-01-01T14:30:00;2.80;;;2.30;;
1026;SDS011;502;48.746;9.214;2023-01-01T14:32:47;4.83;;;2.77;;
1026;SDS011;502;48.746;9.214;2023-01-01T14:35:39;5.00;;;3.20;;
1026;SDS011;502;48.746;9.214;2023-01-01T14:38:41;4.10;;;2.80;;
1026;SDS011;502;48.746;9.214;2023-01-01T14:41:28;6.17;;;3.23;;
1026;SDS011;502;48.746;9.214;2023-01-01T14:44:14;7.30;;;2.83;;
1026;SDS011;502;48.746;9.214;2023-01-01T14:47:01;7.63;;;3.43;;
1026;SDS011;502;48.746;9.214;2023-01-01T14:49:48;8.30;;;3.80;;
1026;SDS011;502;48.746;9.214;2023-01-01T14:52:34;6.17;;;4.03;;
1026;SDS011;502;48.746;9.214;2023-01-01T14:55:19;5.63;;;4.33;;
1026;SDS011;502;48.746;9.214;2023-01-01T14:58:05;6.27;;;4.67;;
1026;SDS011;502;48.746;9.214;2023-01-01T15:00:50;8.27;;;4.97;;
1026;SDS011;502;48.746;9.214;2023-01-01T15:03:36;7.37;;;5.30;;
1026;SDS011;502;48.746;9.214;2023-01-01T15:06:23;8.00;;;5.10;;
1026;SDS011;502;48.746;9.214;2023-01-01T15:09:10;6.73;;;5.00;;
1026;SDS011;502;48.746;9.214;2023-01-01T15:11:59;6.57;;;4.50;;
1026;SDS011;502;48.746;9.214;2023-01-01T15:14:44;9.90;;;4.30;;
1026;SDS011;502;48.746;9.214;2023-01-01T15:17:30;6.83;;;4.67;;
1026;SDS011;502;48.746;9.214;2023-01-01T15:20:29;6.23;;;4.17;;
1026;SDS011;502;48.746;9.214;2023-01-01T15:23:15;7.67;;;6.10;;
1026;SDS011;502;48.746;9.214;2023-01-01T15:26:01;7.90;;;4.00;;
1026;SDS011;502;48.746;9.214;2023-01-01T15:28:48;5.00;;;4.33;;
1026;SDS011;502;48.746;9.214;2023-01-01T15:31:34;6.63;;;5.27;;
1026;SDS011;502;48.746;9.214;2023-01-01T15:34:22;9.20;;;5.00;;
1026;SDS011;502;48.746;9.214;2023-01-01T15:37:11;7.90;;;5.23;;
1026;SDS011;502;48.746;9.214;2023-01-01T15:40:00;7.27;;;5.90;;
1026;SDS011;502;48.746;9.214;2023-01-01T15:43:04;9.13;;;4.93;;
1026;SDS011;502;48.746;9.214;2023-01-01T15:45:58;5.80;;;4.57;;
1026;SDS011;502;48.746;9.214;2023-01-01T15:48:45;5.90;;;5.30;;
1026;SDS011;502;48.746;9.214;2023-01-01T15:51:32;7.27;;;5.00;;
1026;SDS011;502;48.746;9.214;2023-01-01T15:54:27;6.43;;;4.93;;
1026;SDS011;502;48.746;9.214;2023-01-01T15:57:15;7.23;;;4.80;;
1026;SDS011;502;48.746;9.214;2023-01-01T16:00:01;7.40;;;4.97;;
1026;SDS011;502;48.746;9.214;2023-01-01T16:02:58;7.40;;;5.20;;
1026;SDS011;502;48.746;9.214;2023-01-01T16:05:46;6.20;;;4.80;;
1026;SDS011;502;48.746;9.214;2023-01-01T16:08:34;7.53;;;5.03;;
1026;SDS011;502;48.746;9.214;2023-01-01T16:11:20;6.90;;;4.07;;
1026;SDS011;502;48.746;9.214;2023-01-01T16:14:06;7.83;;;4.10;;
1026;SDS011;502;48.746;9.214;2023-01-01T16:16:52;7.30;;;5.13;;
1026;SDS011;502;48.746;9.214;2023-01-01T16:19:40;8.43;;;7.53;;
1026;SDS011;502;48.746;9.214;2023-01-01T16:22:25;7.40;;;6.53;;
1026;SDS011;502;48.746;9.214;2023-01-01T16:25:11;8.10;;;6.00;;
1026;SDS011;502;48.746;9.214;2023-01-01T16:27:58;7.57;;;5.10;;
1026;SDS011;502;48.746;9.214;2023-01-01T16:30:45;11.37;;;5.77;;
1026;SDS011;502;48.746;9.214;2023-01-01T16:33:30;6.67;;;5.20;;
1026;SDS011;502;48.746;9.214;2023-01-01T16:36:16;7.30;;;4.87;;
1026;SDS011;502;48.746;9.214;2023-01-01T16:39:01;8.10;;;5.70;;
1026;SDS011;502;48.746;9.214;2023-01-01T16:41:47;8.43;;;6.87;;
1026;SDS011;502;48.746;9.214;2023-01-01T16:44:32;6.63;;;4.73;;
1026;SDS011;502;48.746;9.214;2023-01-01T16:47:19;5.90;;;4.60;;
1026;SDS011;502;48.746;9.214;2023-01-01T16:50:05;10.30;;;4.30;;
1026;SDS011;502;48.746;9.214;2023-01-01T16:52:51;8.30;;;4.00;;
1026;SDS011;502;48.746;9.214;2023-01-01T16:55:36;5.30;;;4.30;;
1026;SDS011;502;48.746;9.214;2023-01-01T16:58:22;6.80;;;5.60;;
1026;SDS011;502;48.746;9.214;2023-01-01T17:01:07;8.90;;;4.77;;
1026;SDS011;502;48.746;9.214;2023-01-01T17:03:53;5.40;;;4.27;;
1026;SDS011;502;48.746;9.214;2023-01-01T17:06:39;4.00;;;3.43;;
1026;SDS011;502;48.746;9.214;2023-01-01T17:09:24;5.80;;;4.10;;
1026;SDS011;502;48.746;9.214;2023-01-01T17:12:10;4.20;;;3.70;;
1026;SDS011;502;48.746;9.214;2023-01-01T17:14:55;4.70;;;3.93;;
1026;SDS011;502;48.746;9.214;2023-01-01T17:17:41;5.57;;;4.00;;
1026;SDS011;502;48.746;9.214;2023-01-01T17:20:28;6.03;;;4.60;;
1026;SDS011;502;48.746;9.214;2023-01-01T17:23:13;7.90;;;4.10;;
1026;SDS011;502;48.746;9.214;2023-01-01T17:26:03;7.97;;;5.07;;
1026;SDS011;502;48.746;9.214;2023-01-01T17:28:50;5.50;;;3.90;;
1026;SDS011;502;48.746;9.214;2023-01-01T17:31:36;4.70;;;3.90;;
1026;SDS011;502;48.746;9.214;2023-01-01T17:34:21;5.87;;;4.70;;
1026;SDS011;502;48.746;9.214;2023-01-01T17:37:08;6.50;;;5.10;;
1026;SDS011;502;48.746;9.214;2023-01-01T17:39:53;9.63;;;6.73;;
1026;SDS011;502;48.746;9.214;2023-01-01T17:42:39;7.43;;;6.60;;
1026;SDS011;502;48.746;9.214;2023-01-01T17:45:24;8.53;;;6.50;;
1026;SDS011;502;48.746;9.214;2023-01-01T17:48:11;7.63;;;5.40;;
1026;SDS011;502;48.746;9.214;2023-01-01T17:50:57;5.03;;;3.97;;
1026;SDS011;502;48.746;9.214;2023-01-01T17:53:44;6.63;;;3.70;;
1026;SDS011;502;48.746;9.214;2023-01-01T17:56:29;3.40;;;3.00;;
1026;SDS011;502;48.746;9.214;2023-01-01T17:59:14;5.13;;;3.70;;